Time;durP1;ratioP1;P1;durP2;ratioP2;P2;SDS_P1;SDS_P2;PMS_P1;PMS_P2;Temp;Humidity;BMP_temperature;BMP_pressure;BME280_temperature;BME280_humidity;BME280_pressure;Samples;Min_cycle;Max_cycle;Signal;HPM_P1;HPM_P2
2021/10/22 00:00:35;;;;;;;5.13;2.03;;;11.80;99.90;;;;;;4454778;32;20142;-69
2021/10/22 00:03:02;;;;;;;5.90;1.50;;;11.80;99.90;;;;;;4454814;32;20142;-68
2021/10/22 00:05:32;;;;;;;3.97;1.30;;;11.90;99.90;;;;;;4453718;32;20130;-69
2021/10/22 00:08:00;;;;;;;2.57;1.20;;;11.70;99.90;;;;;;4458023;32;20142;-68
2021/10/22 00:10:27;;;;;;;5.17;1.10;;;11.20;99.90;;;;;;4457181;32;20226;-67
2021/10/22 00:12:54;;;;;;;2.00;1.00;;;10.50;99.90;;;;;;4458671;32;20156;-68
2021/10/22 00:15:21;;;;;;;3.13;0.93;;;9.80;99.90;;;;;;4458336;32;20428;-67
2021/10/22 00:17:48;;;;;;;4.87;1.10;;;9.50;99.90;;;;;;4457141;32;20126;-67
2021/10/22 00:20:16;;;;;;;1.47;1.03;;;9.30;99.90;;;;;;4457186;32;20183;-67
2021/10/22 00:22:43;;;;;;;2.20;1.10;;;9.30;99.90;;;;;;4458076;32;20126;-67
2021/10/22 00:25:10;;;;;;;1.83;1.00;;;9.20;99.90;;;;;;4458485;32;20138;-67
2021/10/22 00:27:37;;;;;;;3.47;1.40;;;9.00;99.90;;;;;;4456807;32;20370;-67
2021/10/22 00:30:04;;;;;;;4.90;1.30;;;8.90;99.90;;;;;;4458618;32;20176;-68
2021/10/22 00:32:31;;;;;;;2.13;1.20;;;8.80;99.90;;;;;;4456792;32;20175;-68
2021/10/22 00:34:58;;;;;;;4.73;1.40;;;8.70;99.90;;;;;;4457715;32;20126;-67
2021/10/22 00:37:25;;;;;;;4.07;1.10;;;8.70;99.90;;;;;;4457832;32;20512;-68
2021/10/22 00:39:52;;;;;;;3.43;1.10;;;8.70;99.90;;;;;;4458216;32;20452;-67
2021/10/22 00:42:21;;;;;;;5.17;1.10;;;8.60;99.90;;;;;;4458045;32;20412;-67
2021/10/22 00:44:50;;;;;;;2.77;1.10;;;8.60;99.90;;;;;;4458042;32;20251;-67
2021/10/22 00:47:18;;;;;;;4.17;1.30;;;8.60;99.90;;;;;;4458425;32;20141;-68
2021/10/22 00:49:45;;;;;;;4.20;1.20;;;8.60;99.90;;;;;;4456754;32;20122;-67
2021/10/22 00:52:15;;;;;;;3.63;1.00;;;8.60;99.90;;;;;;4456737;32;20130;-66
2021/10/22 00:54:42;;;;;;;2.97;0.93;;;8.60;99.90;;;;;;4457773;32;20228;-68
2021/10/22 00:57:10;;;;;;;2.97;1.10;;;8.60;99.90;;;;;;4458114;32;20133;-67
2021/10/22 00:59:38;;;;;;;3.73;1.00;;;8.60;99.90;;;;;;4458195;32;20182;-67
2021/10/22 01:02:05;;;;;;;2.03;1.00;;;8.60;99.90;;;;;;4456163;32;20179;-67
2021/10/22 01:04:32;;;;;;;3.03;1.00;;;8.60;99.90;;;;;;4456585;32;20131;-66
2021/10/22 01:07:00;;;;;;;3.53;1.00;;;8.60;99.90;;;;;;4455865;32;20138;-67
2021/10/22 01:09:27;;;;;;;2.83;0.70;;;8.60;99.90;;;;;;4457323;32;20123;-68
2021/10/22 01:11:54;;;;;;;4.73;1.00;;;8.70;99.90;;;;;;4458015;32;20126;-68
2021/10/22 01:14:21;;;;;;;4.70;0.90;;;8.70;99.90;;;;;;4456027;32;20150;-67
2021/10/22 01:16:48;;;;;;;1.00;0.90;;;8.80;99.90;;;;;;4457663;32;20479;-68
2021/10/22 01:19:18;;;;;;;1.37;0.90;;;8.80;99.90;;;;;;4456793;32;20175;-67
2021/10/22 01:21:47;;;;;;;4.93;1.17;;;8.80;99.90;;;;;;4457752;32;20161;-67
2021/10/22 01:24:15;;;;;;;2.50;0.90;;;8.90;99.90;;;;;;4457869;32;20127;-66
2021/10/22 01:26:43;;;;;;;2.83;1.10;;;8.90;99.90;;;;;;4455940;32;20130;-68
2021/10/22 01:29:09;;;;;;;1.20;1.00;;;8.90;99.90;;;;;;4456595;32;20130;-67
2021/10/22 01:31:37;;;;;;;1.43;0.90;;;8.90;99.90;;;;;;4457847;32;20421;-69
2021/10/22 01:34:05;;;;;;;5.03;0.80;;;8.90;99.90;;;;;;4455671;32;20133;-68
2021/10/22 01:36:33;;;;;;;1.77;1.00;;;9.00;99.90;;;;;;4457443;32;20237;-68
2021/10/22 01:39:02;;;;;;;2.90;0.80;;;9.00;99.90;;;;;;4455128;32;20444;-67
2021/10/22 01:41:29;;;;;;;1.63;0.70;;;8.90;99.90;;;;;;4456498;32;20135;-67
2021/10/22 01:44:00;;;;;;;1.73;1.03;;;8.90;99.90;;;;;;4457232;32;20127;-68
2021/10/22 01:46:28;;;;;;;1.20;0.60;;;8.90;99.90;;;;;;4455740;32;20134;-68
2021/10/22 01:48:56;;;;;;;4.50;0.80;;;8.90;99.90;;;;;;4456357;32;20392;-68
2021/10/22 01:51:22;;;;;;;3.03;0.80;;;8.90;99.90;;;;;;4457261;32;20126;-69
2021/10/22 01:53:49;;;;;;;2.73;0.80;;;8.90;99.90;;;;;;4457128;32;20402;-68
2021/10/22 01:56:16;;;;;;;2.47;0.90;;;8.80;99.90;;;;;;4455488;32;20444;-68
2021/10/22 01:58:43;;;;;;;3.57;0.73;;;8.80;99.90;;;;;;4456369;32;20136;-68
2021/10/22 02:01:12;;;;;;;2.20;0.80;;;8.70;99.90;;;;;;4455763;32;20183;-68
2021/10/22 02:03:50;;;;;;;4.93;0.87;;;8.70;99.90;;;;;;4456822;32;20156;-68
2021/10/22 02:06:33;;;;;;;1.80;0.80;;;8.60;99.90;;;;;;4456470;32;20133;-67
2021/10/22 02:09:28;;;;;;;1.97;0.80;;;8.60;99.90;;;;;;4455366;32;20161;-67
2021/10/22 02:12:08;;;;;;;1.93;0.90;;;8.60;99.90;;;;;;4455506;32;20169;-68
2021/10/22 02:14:52;;;;;;;5.20;1.00;;;8.60;99.90;;;;;;4454872;32;20185;-69
2021/10/22 02:17:48;;;;;;;3.40;1.00;;;8.60;99.90;;;;;;4455286;32;20214;-68
2021/10/22 02:20:38;;;;;;;5.40;1.20;;;8.60;99.90;;;;;;4456808;32;20169;-67
2021/10/22 02:23:16;;;;;;;2.47;0.80;;;8.50;99.90;;;;;;4455367;32;20387;-69
2021/10/22 02:25:49;;;;;;;4.57;0.93;;;8.50;99.90;;;;;;4456132;32;20398;-68
2021/10/22 02:28:41;;;;;;;4.17;1.10;;;8.50;99.90;;;;;;4455047;32;20142;-69
2021/10/22 02:31:52;;;;;;;5.60;1.00;;;8.50;99.90;;;;;;4455163;32;20157;-68
2021/10/22 02:35:17;;;;;;;4.83;1.00;;;8.60;99.90;;;;;;4454004;32;20166;-67
2021/10/22 02:37:59;;;;;;;5.50;1.20;;;8.60;99.90;;;;;;4455273;32;20142;-68
2021/10/22 02:40:34;;;;;;;3.23;1.23;;;8.50;99.90;;;;;;4454990;32;20164;-68
2021/10/22 02:43:24;;;;;;;3.40;1.10;;;8.60;99.90;;;;;;4454575;32;20144;-68
2021/10/22 02:46:02;;;;;;;5.40;1.20;;;8.60;99.90;;;;;;4453631;32;20236;-69
2021/10/22 02:48:50;;;;;;;5.70;0.90;;;8.60;99.90;;;;;;4456032;32;20146;-68
2021/10/22 02:51:28;;;;;;;2.10;1.03;;;8.60;99.90;;;;;;4456874;32;20142;-67
2021/10/22 02:54:01;;;;;;;6.40;1.17;;;8.60;99.90;;;;;;4454978;32;20138;-69
2021/10/22 02:56:31;;;;;;;5.17;1.10;;;8.50;99.90;;;;;;4456227;32;20444;-68
2021/10/22 02:58:58;;;;;;;4.83;1.23;;;8.50;99.90;;;;;;4456424;32;20539;-68
2021/10/22 03:01:24;;;;;;;4.47;1.50;;;8.60;99.90;;;;;;4456382;32;20239;-68
2021/10/22 03:03:51;;;;;;;7.03;1.30;;;8.60;99.90;;;;;;4456080;32;20502;-67
2021/10/22 03:06:19;;;;;;;2.33;1.00;;;8.60;99.90;;;;;;4456372;32;20126;-68
2021/10/22 03:08:46;;;;;;;3.33;1.10;;;8.60;99.90;;;;;;4454685;32;20140;-68
2021/10/22 03:11:13;;;;;;;3.93;1.10;;;8.60;99.90;;;;;;4456275;32;20127;-67
2021/10/22 03:13:40;;;;;;;6.93;1.60;;;8.60;99.90;;;;;;4456099;32;20137;-68
2021/10/22 03:16:07;;;;;;;5.60;1.40;;;8.60;99.90;;;;;;4456120;32;20154;-69
2021/10/22 03:18:33;;;;;;;5.83;1.43;;;8.60;99.90;;;;;;4454579;32;20143;-67
2021/10/22 03:21:00;;;;;;;2.77;1.23;;;8.60;99.90;;;;;;4456549;32;20176;-68
2021/10/22 03:23:27;;;;;;;3.53;1.20;;;8.60;99.90;;;;;;4456313;32;20402;-68
2021/10/22 03:25:54;;;;;;;4.00;1.10;;;8.60;99.90;;;;;;4455822;32;20130;-68
2021/10/22 03:28:21;;;;;;;3.17;1.20;;;8.60;99.90;;;;;;4454469;32;20495;-67
2021/10/22 03:30:47;;;;;;;6.47;1.40;;;8.60;99.90;;;;;;4455891;32;20134;-69
2021/10/22 03:33:14;;;;;;;5.33;1.30;;;8.60;99.90;;;;;;4456213;32;20169;-67
2021/10/22 03:35:41;;;;;;;3.83;1.30;;;8.60;99.90;;;;;;4455964;32;20161;-68
2021/10/22 03:38:08;;;;;;;7.60;1.40;;;8.50;99.90;;;;;;4455719;32;20134;-67
2021/10/22 03:40:35;;;;;;;6.10;1.50;;;8.50;99.90;;;;;;4455916;32;20138;-68
2021/10/22 03:43:02;;;;;;;4.10;1.10;;;8.50;99.90;;;;;;4455170;32;20170;-68
2021/10/22 03:45:29;;;;;;;5.67;1.50;;;8.50;99.90;;;;;;4453925;32;20218;-67
2021/10/22 03:47:56;;;;;;;5.00;1.30;;;8.40;99.90;;;;;;4454478;32;20252;-67
2021/10/22 03:50:25;;;;;;;6.27;1.80;;;8.40;99.90;;;;;;4455994;32;20451;-68
2021/10/22 03:52:55;;;;;;;7.47;1.40;;;8.40;99.90;;;;;;4455956;32;20285;-68
2021/10/22 03:55:22;;;;;;;3.90;1.70;;;8.40;99.90;;;;;;4455681;32;20222;-67
2021/10/22 03:57:49;;;;;;;5.60;1.50;;;8.40;99.90;;;;;;4454121;32;20532;-67
2021/10/22 04:00:17;;;;;;;7.20;1.67;;;8.40;99.90;;;;;;4455007;32;20229;-68
2021/10/22 04:02:44;;;;;;;3.10;1.30;;;8.40;99.90;;;;;;4453928;32;20134;-68
2021/10/22 04:05:11;;;;;;;5.80;1.50;;;8.40;99.90;;;;;;4454481;32;20436;-68
2021/10/22 04:07:38;;;;;;;5.73;1.23;;;8.40;99.90;;;;;;4455619;32;20134;-70
2021/10/22 04:10:08;;;;;;;4.03;1.60;;;8.40;99.90;;;;;;4454804;32;20127;-68
2021/10/22 04:12:35;;;;;;;4.70;1.40;;;8.40;99.90;;;;;;4453965;32;20160;-69
2021/10/22 04:15:02;;;;;;;3.97;1.23;;;8.30;99.90;;;;;;4454419;32;20456;-69
2021/10/22 04:17:29;;;;;;;7.57;1.37;;;8.30;99.90;;;;;;4453900;32;20193;-68
2021/10/22 04:19:56;;;;;;;3.17;1.30;;;8.30;99.90;;;;;;4455554;32;20153;-68
2021/10/22 04:22:23;;;;;;;4.80;1.50;;;8.20;99.90;;;;;;4455942;32;20186;-67
2021/10/22 04:24:50;;;;;;;5.87;1.43;;;8.20;99.90;;;;;;4454463;32;20198;-67
2021/10/22 04:27:16;;;;;;;8.50;1.50;;;8.20;99.90;;;;;;4455646;32;20134;-68
2021/10/22 04:29:43;;;;;;;6.83;1.30;;;8.20;99.90;;;;;;4452999;32;20134;-68
2021/10/22 04:32:10;;;;;;;5.50;1.80;;;8.10;99.90;;;;;;4453887;32;20195;-67
2021/10/22 04:34:37;;;;;;;3.67;1.30;;;8.10;99.90;;;;;;4455609;32;20129;-68
2021/10/22 04:37:24;;;;;;;6.63;1.73;;;8.00;99.90;;;;;;4454036;32;20158;-67
2021/10/22 04:42:43;;;;;;;4.57;1.60;;;8.00;99.90;;;;;;4455284;32;20499;-68
2021/10/22 04:45:10;;;;;;;6.40;1.57;;;7.90;99.90;;;;;;4453399;32;20162;-68
2021/10/22 04:47:38;;;;;;;7.00;1.50;;;7.90;99.90;;;;;;4455789;32;20199;-68
2021/10/22 04:50:08;;;;;;;3.97;1.30;;;7.80;99.90;;;;;;4455433;32;20157;-68
2021/10/22 04:52:34;;;;;;;5.43;1.40;;;7.70;99.90;;;;;;4456614;32;20169;-68
2021/10/22 04:55:01;;;;;;;2.90;1.30;;;7.70;99.90;;;;;;4458457;32;20440;-67
2021/10/22 04:57:28;;;;;;;6.00;1.50;;;7.70;99.90;;;;;;4457287;32;20182;-68
2021/10/22 04:59:55;;;;;;;8.77;1.70;;;7.60;99.90;;;;;;4456815;32;20132;-67
2021/10/22 05:02:22;;;;;;;3.20;1.30;;;7.60;99.90;;;;;;4458295;32;20560;-67
2021/10/22 05:04:49;;;;;;;3.73;1.40;;;7.50;99.90;;;;;;4458292;32;20129;-67
2021/10/22 05:07:16;;;;;;;6.73;1.50;;;7.40;99.90;;;;;;4457724;32;20199;-67
2021/10/22 05:09:42;;;;;;;8.07;1.80;;;7.30;99.90;;;;;;4456702;32;20162;-66
2021/10/22 05:12:09;;;;;;;4.83;1.50;;;7.30;99.90;;;;;;4457892;32;20232;-68
2021/10/22 05:14:36;;;;;;;7.17;1.57;;;7.30;99.90;;;;;;4456809;32;20158;-68
2021/10/22 05:17:04;;;;;;;5.87;1.50;;;7.20;99.90;;;;;;4458180;32;20225;-68
2021/10/22 05:19:31;;;;;;;5.63;1.57;;;7.20;99.90;;;;;;4458104;32;20138;-69
2021/10/22 05:21:58;;;;;;;5.87;1.57;;;7.10;99.90;;;;;;4457119;32;20139;-68
2021/10/22 05:24:25;;;;;;;5.17;1.60;;;7.10;99.90;;;;;;4457101;32;20136;-69
2021/10/22 05:26:51;;;;;;;5.17;1.57;;;7.10;99.90;;;;;;4458153;32;20450;-69
2021/10/22 05:29:18;;;;;;;9.20;1.57;;;7.10;99.90;;;;;;4456291;32;20190;-69
2021/10/22 05:31:45;;;;;;;5.50;1.60;;;7.10;99.90;;;;;;4457391;32;20182;-68
2021/10/22 05:34:12;;;;;;;5.03;1.60;;;7.10;99.90;;;;;;4457605;32;20130;-69
2021/10/22 05:36:39;;;;;;;5.70;1.80;;;7.10;99.90;;;;;;4457039;32;20131;-68
2021/10/22 05:39:05;;;;;;;5.63;1.83;;;7.10;99.90;;;;;;4457911;32;20242;-67
2021/10/22 05:41:32;;;;;;;3.97;1.43;;;7.10;99.90;;;;;;4457541;32;20176;-67
2021/10/22 05:43:59;;;;;;;7.37;1.40;;;7.00;99.90;;;;;;4457365;32;20130;-69
2021/10/22 05:46:26;;;;;;;12.63;1.70;;;7.10;99.90;;;;;;4456719;32;20172;-68
2021/10/22 05:48:53;;;;;;;5.57;1.50;;;7.10;99.90;;;;;;4455577;32;20212;-69
2021/10/22 05:51:20;;;;;;;5.53;1.70;;;7.10;99.90;;;;;;4457405;32;20183;-68
2021/10/22 05:53:47;;;;;;;5.73;1.53;;;7.10;99.90;;;;;;4457220;32;20187;-68
2021/10/22 05:56:14;;;;;;;4.53;1.70;;;7.00;99.90;;;;;;4455794;32;20458;-67
2021/10/22 05:58:40;;;;;;;5.53;1.40;;;7.10;99.90;;;;;;4456155;32;20436;-67
2021/10/22 06:01:07;;;;;;;3.57;1.30;;;7.10;99.90;;;;;;4457020;32;20186;-68
2021/10/22 06:03:53;;;;;;;4.37;1.57;;;7.10;99.90;;;;;;4455834;32;20139;-67
2021/10/22 06:06:20;;;;;;;3.23;1.37;;;7.10;99.90;;;;;;4457378;32;20135;-68
2021/10/22 06:08:47;;;;;;;5.30;1.50;;;7.10;99.90;;;;;;4457421;32;20140;-69
2021/10/22 06:11:14;;;;;;;6.50;1.60;;;7.10;99.90;;;;;;4457336;32;20543;-68
2021/10/22 06:13:42;;;;;;;6.27;1.50;;;7.10;99.90;;;;;;4455682;32;20135;-67
2021/10/22 06:16:10;;;;;;;5.87;1.60;;;7.20;99.90;;;;;;4454077;32;20516;-67
2021/10/22 06:18:46;;;;;;;3.97;1.43;;;7.20;99.90;;;;;;4456804;32;20156;-66
2021/10/22 06:21:36;;;;;;;3.77;1.40;;;7.20;99.90;;;;;;4448405;32;20186;-68
2021/10/22 06:24:03;;;;;;;11.40;1.93;;;7.30;99.90;;;;;;4449323;32;20239;-68
2021/10/22 06:26:32;;;;;;;6.63;1.27;;;7.30;99.90;;;;;;4451677;32;20425;-67
2021/10/22 06:29:01;;;;;;;6.80;1.47;;;7.30;99.90;;;;;;4454624;32;20224;-66
2021/10/22 06:31:28;;;;;;;4.87;1.60;;;7.30;99.90;;;;;;4454351;32;20166;-68
2021/10/22 06:33:55;;;;;;;6.57;1.67;;;7.40;99.90;;;;;;4455945;32;20195;-67
2021/10/22 06:36:22;;;;;;;6.27;2.00;;;7.40;99.90;;;;;;4454898;32;20157;-68
2021/10/22 06:38:49;;;;;;;7.13;1.70;;;7.50;99.90;;;;;;4455564;32;20432;-68
2021/10/22 06:41:17;;;;;;;6.30;1.60;;;7.50;99.90;;;;;;4456483;32;20166;-67
2021/10/22 06:43:44;;;;;;;4.47;1.30;;;7.50;99.90;;;;;;4455167;32;20159;-67
2021/10/22 06:46:13;;;;;;;7.23;2.30;;;7.60;99.90;;;;;;4455103;32;20498;-67
2021/10/22 06:48:41;;;;;;;7.10;1.80;;;7.60;99.90;;;;;;4455068;32;20148;-66
2021/10/22 06:51:09;;;;;;;6.07;1.63;;;7.60;99.90;;;;;;4456922;32;20141;-67
2021/10/22 06:53:36;;;;;;;5.67;1.50;;;7.70;99.90;;;;;;4455615;32;20197;-68
2021/10/22 06:56:04;;;;;;;6.10;1.70;;;7.80;99.90;;;;;;4456605;32;20142;-67
2021/10/22 06:58:32;;;;;;;6.70;1.80;;;7.80;99.90;;;;;;4456524;32;20174;-66
2021/10/22 07:01:00;;;;;;;5.17;1.83;;;7.80;99.90;;;;;;4456679;32;20127;-66
2021/10/22 07:03:28;;;;;;;5.17;1.60;;;7.80;99.90;;;;;;4454459;32;20140;-66
2021/10/22 07:08:23;;;;;;;7.90;1.87;;;7.90;99.90;;;;;;4454883;32;20199;-68
2021/10/22 07:10:50;;;;;;;5.57;1.87;;;7.90;99.90;;;;;;4456366;32;20199;-67
2021/10/22 07:13:18;;;;;;;6.57;1.97;;;8.00;99.90;;;;;;4454303;32;20143;-66
2021/10/22 07:15:44;;;;;;;8.60;2.00;;;8.00;99.90;;;;;;4454195;32;20343;-67
2021/10/22 07:18:15;;;;;;;5.53;2.00;;;8.10;99.90;;;;;;4454448;32;20179;-67
2021/10/22 07:20:42;;;;;;;7.43;1.90;;;8.10;99.90;;;;;;4454427;32;20482;-66
2021/10/22 07:23:10;;;;;;;6.60;1.80;;;8.20;99.90;;;;;;4456143;32;20519;-67
2021/10/22 07:25:39;;;;;;;3.40;1.67;;;8.20;99.90;;;;;;4455843;32;20530;-67
2021/10/22 07:28:11;;;;;;;9.33;2.33;;;8.30;99.90;;;;;;4455755;32;20137;-66
2021/10/22 07:30:44;;;;;;;6.87;1.87;;;8.40;99.90;;;;;;4456328;32;20156;-66
2021/10/22 07:33:14;;;;;;;7.40;1.80;;;8.40;99.90;;;;;;4455309;32;20131;-66
2021/10/22 07:35:41;;;;;;;6.73;2.27;;;8.30;99.90;;;;;;4456184;32;20134;-68
2021/10/22 07:38:12;;;;;;;6.90;1.93;;;8.40;99.90;;;;;;4455676;32;20219;-67
2021/10/22 07:40:47;;;;;;;6.70;1.70;;;8.40;99.90;;;;;;4455570;32;20135;-69
2021/10/22 07:43:15;;;;;;;6.13;1.70;;;8.60;99.90;;;;;;4456198;32;20231;-68
2021/10/22 07:45:41;;;;;;;7.33;2.00;;;8.70;99.90;;;;;;4454406;32;20173;-68
2021/10/22 07:48:08;;;;;;;4.67;1.90;;;8.80;99.90;;;;;;4454321;32;20193;-68
2021/10/22 07:50:35;;;;;;;6.27;2.17;;;8.90;99.90;;;;;;4453901;32;20510;-68
2021/10/22 07:53:02;;;;;;;8.87;1.90;;;9.30;99.90;;;;;;4455886;32;20150;-67
2021/10/22 07:55:29;;;;;;;5.30;1.80;;;9.50;99.90;;;;;;4455670;32;20536;-68
2021/10/22 07:57:56;;;;;;;6.23;1.80;;;9.70;99.90;;;;;;4455657;32;20130;-68
2021/10/22 08:00:23;;;;;;;5.27;1.47;;;9.60;99.90;;;;;;4454112;32;20188;-69
2021/10/22 08:02:50;;;;;;;6.50;2.03;;;9.40;99.90;;;;;;4454100;32;20130;-69
2021/10/22 08:05:17;;;;;;;7.23;1.80;;;9.30;99.90;;;;;;4454519;32;20182;-67
2021/10/22 08:07:44;;;;;;;8.63;1.70;;;9.50;99.90;;;;;;4453617;32;20432;-68
2021/10/22 08:10:11;;;;;;;9.17;1.87;;;9.70;99.90;;;;;;4453805;32;20436;-68
2021/10/22 08:12:38;;;;;;;4.80;1.70;;;9.80;99.90;;;;;;4455344;32;20398;-69
2021/10/22 08:15:19;;;;;;;7.43;1.80;;;9.90;99.90;;;;;;4453097;32;20213;-67
2021/10/22 08:18:24;;;;;;;6.17;1.90;;;10.00;99.90;;;;;;4454634;32;20197;-67
2021/10/22 08:21:01;;;;;;;5.37;2.10;;;10.10;99.90;;;;;;4390249;32;20205;-68
2021/10/22 08:23:48;;;;;;;7.93;2.20;;;10.10;99.90;;;;;;4392086;32;20281;-67
2021/10/22 08:26:35;;;;;;;;;;;;;;;;;;;;;
2021/10/22 08:29:31;;;;;;;9.23;2.00;;;10.20;99.90;;;;;;4394724;32;20174;-67
2021/10/22 08:32:22;;;;;;;7.97;1.63;;;10.20;99.90;;;;;;4391595;32;20241;-68
2021/10/22 08:35:20;;;;;;;8.03;1.90;;;10.00;99.90;;;;;;4393477;32;20150;-67
2021/10/22 08:38:23;;;;;;;8.10;1.80;;;9.90;99.90;;;;;;4393066;32;20183;-68
2021/10/22 08:40:56;;;;;;;6.57;2.00;;;9.80;99.90;;;;;;4393062;32;20200;-68
2021/10/22 08:43:35;;;;;;;6.03;1.83;;;9.80;99.90;;;;;;4393792;32;20302;-68
2021/10/22 08:46:28;;;;;;;7.53;2.00;;;10.00;99.90;;;;;;4392185;32;20163;-68
2021/10/22 08:49:26;;;;;;;6.30;2.00;;;10.20;99.90;;;;;;4391866;32;20426;-68
2021/10/22 08:52:06;;;;;;;9.00;2.17;;;10.20;99.90;;;;;;4394805;32;20201;-68
2021/10/22 08:54:53;;;;;;;10.30;2.00;;;10.10;99.90;;;;;;4392589;32;20170;-67
2021/10/22 08:57:32;;;;;;;6.97;1.70;;;10.10;99.90;;;;;;4411334;32;20170;-68
2021/10/22 09:00:19;;;;;;;7.57;2.10;;;10.10;99.90;;;;;;4456270;32;20165;-67
2021/10/22 09:03:20;;;;;;;12.47;2.10;;;10.20;99.90;;;;;;4456464;32;20205;-68
2021/10/22 09:06:18;;;;;;;6.57;2.13;;;10.30;99.90;;;;;;4457882;32;20165;-67
2021/10/22 09:09:23;;;;;;;7.67;2.10;;;10.50;99.90;;;;;;4455746;32;20166;-68
2021/10/22 09:11:58;;;;;;;6.33;2.10;;;10.40;99.90;;;;;;4456383;32;20160;-69
2021/10/22 09:14:28;;;;;;;5.57;1.80;;;10.50;99.90;;;;;;4455052;32;20150;-68
2021/10/22 09:17:15;;;;;;;5.53;1.93;;;10.80;99.90;;;;;;4455852;32;20149;-69
2021/10/22 09:19:53;;;;;;;6.87;1.90;;;11.30;99.90;;;;;;4456021;32;20142;-68
2021/10/22 09:22:39;;;;;;;9.20;1.90;;;11.70;99.90;;;;;;4456006;32;20190;-69
2021/10/22 09:25:40;;;;;;;7.63;1.93;;;12.10;99.90;;;;;;4456498;32;20165;-68
2021/10/22 09:28:18;;;;;;;6.20;1.70;;;12.10;99.90;;;;;;4455600;32;20135;-67
2021/10/22 09:31:12;;;;;;;7.30;1.73;;;12.00;99.90;;;;;;4455879;32;20135;-67
2021/10/22 09:34:41;;;;;;;8.80;2.20;;;11.70;99.90;;;;;;4455907;32;20135;-68
2021/10/22 09:37:43;;;;;;;8.37;2.27;;;11.50;99.90;;;;;;4392466;32;20213;-69
2021/10/22 09:40:45;;;;;;;4.93;1.60;;;11.50;99.90;;;;;;4394071;32;20182;-68
2021/10/22 09:43:30;;;;;;;8.17;2.10;;;11.40;99.90;;;;;;4394226;32;20128;-67
2021/10/22 09:46:29;;;;;;;5.73;1.90;;;11.30;99.90;;;;;;4392394;32;20186;-68
2021/10/22 09:49:10;;;;;;;8.77;2.13;;;11.10;99.90;;;;;;4389608;32;20218;-68
2021/10/22 09:51:54;;;;;;;6.60;1.87;;;11.00;99.90;;;;;;4392912;32;20197;-68
2021/10/22 09:54:34;;;;;;;9.43;1.73;;;11.00;99.90;;;;;;4392220;32;20212;-68
2021/10/22 09:57:27;;;;;;;9.00;1.90;;;11.00;99.90;;;;;;4391183;32;20206;-68
2021/10/22 10:00:36;;;;;;;10.10;1.83;;;10.80;99.90;;;;;;4392013;32;20166;-69
2021/10/22 10:03:20;;;;;;;7.53;2.17;;;10.80;99.90;;;;;;4385735;32;20202;-67
2021/10/22 10:05:54;;;;;;;6.07;1.87;;;10.80;99.90;;;;;;4392256;32;20147;-68
2021/10/22 10:08:50;;;;;;;;;;;;;;;;;;;;;
2021/10/22 10:11:33;;;;;;;9.97;2.53;;;10.90;99.90;;;;;;4391797;32;20150;-68
2021/10/22 10:14:01;;;;;;;6.87;1.90;;;10.90;99.90;;;;;;4393432;32;20227;-67
2021/10/22 10:16:39;;;;;;;7.23;1.93;;;10.90;99.90;;;;;;4391781;32;20172;-68
2021/10/22 10:19:27;;;;;;;7.10;2.00;;;11.20;99.90;;;;;;4393074;32;20234;-67
2021/10/22 10:22:00;;;;;;;8.00;2.20;;;11.40;99.90;;;;;;4391817;32;20206;-67
2021/10/22 10:25:03;;;;;;;5.90;1.80;;;11.50;99.90;;;;;;4392482;32;20148;-67
2021/10/22 10:28:07;;;;;;;5.73;1.60;;;11.50;99.90;;;;;;4392736;32;20201;-67
2021/10/22 10:30:59;;;;;;;8.77;1.80;;;11.70;99.90;;;;;;4392630;32;20242;-68
2021/10/22 10:33:43;;;;;;;8.70;1.90;;;11.90;99.90;;;;;;4393231;32;20441;-68
2021/10/22 10:36:47;;;;;;;5.57;1.60;;;11.80;99.90;;;;;;4391435;32;20190;-67
2021/10/22 10:40:06;;;;;;;4.90;1.70;;;11.90;99.90;;;;;;4399383;32;20173;-67
2021/10/22 10:42:46;;;;;;;6.33;2.30;;;12.30;99.90;;;;;;4454635;32;20150;-68
2021/10/22 10:45:46;;;;;;;7.43;1.60;;;12.10;99.90;;;;;;4454344;32;20199;-68
2021/10/22 10:48:23;;;;;;;10.37;1.97;;;12.20;99.90;;;;;;4453373;32;20218;-68
2021/10/22 10:51:14;;;;;;;6.63;1.93;;;12.50;99.90;;;;;;4454428;32;20464;-68
2021/10/22 10:54:03;;;;;;;9.93;1.90;;;12.40;99.90;;;;;;4454698;32;20191;-68
2021/10/22 10:56:51;;;;;;;6.83;1.83;;;12.30;99.90;;;;;;4453773;32;20173;-67
2021/10/22 10:59:50;;;;;;;8.13;1.73;;;12.20;99.90;;;;;;4456255;32;20161;-67
2021/10/22 11:03:06;;;;;;;11.17;1.70;;;12.30;99.90;;;;;;4454519;32;20134;-68
2021/10/22 11:05:54;;;;;;;7.17;1.73;;;12.10;99.90;;;;;;4453636;32;20134;-68
2021/10/22 11:08:38;;;;;;;7.50;2.00;;;12.00;99.90;;;;;;4456060;32;20130;-68
2021/10/22 11:11:36;;;;;;;6.33;1.70;;;12.00;99.90;;;;;;4455060;32;20164;-68
2021/10/22 11:14:14;;;;;;;8.17;1.60;;;12.40;99.90;;;;;;4454145;32;20168;-67
2021/10/22 11:16:58;;;;;;;12.13;1.93;;;12.10;99.90;;;;;;4454266;32;20138;-67
2021/10/22 11:20:12;;;;;;;6.50;2.03;;;12.20;99.90;;;;;;4454369;32;20229;-66
2021/10/22 11:22:49;;;;;;;13.77;1.90;;;12.80;99.90;;;;;;4391157;32;20191;-67
2021/10/22 11:25:34;;;;;;;5.13;1.83;;;12.80;99.90;;;;;;4391027;32;20505;-68
2021/10/22 11:28:12;;;;;;;8.00;1.80;;;12.90;99.90;;;;;;4391047;32;20210;-67
2021/10/22 11:31:10;;;;;;;8.73;1.90;;;12.60;99.90;;;;;;4390963;32;20151;-67
2021/10/22 11:34:16;;;;;;;12.40;2.43;;;12.50;99.90;;;;;;4391487;32;20183;-67
2021/10/22 11:37:23;;;;;;;8.03;1.90;;;12.10;99.90;;;;;;4392636;32;20414;-68
2021/10/22 11:40:25;;;;;;;9.77;1.87;;;11.60;99.90;;;;;;4316811;33;20221;-68
2021/10/22 11:43:10;;;;;;;9.10;1.90;;;11.40;99.90;;;;;;4316143;33;20157;-68
2021/10/22 11:45:53;;;;;;;11.33;2.37;;;11.60;99.90;;;;;;4315878;33;20451;-67
2021/10/22 11:48:54;;;;;;;8.00;1.70;;;11.70;99.90;;;;;;4316509;33;20200;-67
2021/10/22 11:51:37;;;;;;;6.03;1.60;;;11.70;99.90;;;;;;4318301;33;20134;-67
2021/10/22 11:54:38;;;;;;;8.43;1.83;;;11.70;99.90;;;;;;4316459;33;20172;-69
2021/10/22 11:57:28;;;;;;;5.83;2.13;;;11.50;99.90;;;;;;4315009;33;20220;-68
2021/10/22 12:00:06;;;;;;;10.30;2.40;;;11.80;99.90;;;;;;4362132;32;20139;-68
2021/10/22 12:02:50;;;;;;;5.30;1.60;;;12.10;99.90;;;;;;4394691;32;20201;-68
2021/10/22 12:05:45;;;;;;;7.00;1.97;;;12.40;99.90;;;;;;4395314;32;20158;-68
2021/10/22 12:08:20;;;;;;;7.27;1.80;;;12.40;99.90;;;;;;4393540;32;20500;-68
2021/10/22 12:11:11;;;;;;;6.07;2.07;;;12.10;99.90;;;;;;4395280;32;20171;-68
2021/10/22 12:13:46;;;;;;;5.80;1.77;;;11.80;99.90;;;;;;4423671;32;20232;-68
2021/10/22 12:16:34;;;;;;;8.47;1.70;;;11.50;99.90;;;;;;4458946;32;20238;-68
2021/10/22 12:19:09;;;;;;;6.97;2.10;;;11.30;99.90;;;;;;4456306;32;20153;-68
2021/10/22 12:21:55;;;;;;;10.07;1.93;;;11.10;99.90;;;;;;4458631;32;20149;-68
2021/10/22 12:24:54;;;;;;;6.30;1.47;;;11.10;99.90;;;;;;4457521;32;20182;-68
2021/10/22 12:27:36;;;;;;;6.33;1.70;;;11.00;99.90;;;;;;4457652;32;20156;-70
2021/10/22 12:30:27;;;;;;;9.73;2.30;;;10.90;99.90;;;;;;4455503;32;20171;-69
2021/10/22 12:33:14;;;;;;;5.80;1.90;;;10.90;99.90;;;;;;4457673;32;20147;-69
2021/10/22 12:35:54;;;;;;;6.40;1.67;;;10.80;99.90;;;;;;4458587;32;20129;-69
2021/10/22 12:38:54;;;;;;;3.93;1.33;;;10.90;99.90;;;;;;4458211;32;20153;-69
2021/10/22 12:41:34;;;;;;;6.33;1.80;;;10.90;99.90;;;;;;4457168;32;20126;-69
2021/10/22 12:44:25;;;;;;;8.67;1.90;;;10.80;99.90;;;;;;4456065;32;20531;-68
2021/10/22 12:47:14;;;;;;;8.17;1.90;;;10.80;99.90;;;;;;4456587;32;20177;-69
2021/10/22 12:50:01;;;;;;;4.73;1.60;;;10.80;99.90;;;;;;4457637;32;20188;-69
2021/10/22 12:53:20;;;;;;;6.53;1.83;;;10.80;99.90;;;;;;4456536;32;20143;-69
2021/10/22 12:56:10;;;;;;;6.00;1.70;;;10.80;99.90;;;;;;4393093;32;20452;-70
2021/10/22 12:58:59;;;;;;;4.17;1.50;;;10.80;99.90;;;;;;4394514;32;20148;-69
2021/10/22 13:01:43;;;;;;;6.87;1.60;;;10.80;99.90;;;;;;4394726;32;20218;-69
2021/10/22 13:04:46;;;;;;;6.93;1.80;;;10.80;99.90;;;;;;4393385;32;20143;-68
2021/10/22 13:07:36;;;;;;;6.47;1.60;;;10.80;99.90;;;;;;4394504;32;20203;-69
2021/10/22 13:22:30;;;;;;;9.10;1.90;;;10.70;99.90;;;;;;4391945;32;20411;-70
2021/10/22 13:25:07;;;;;;;8.50;1.70;;;10.60;99.90;;;;;;4392280;32;20135;-70
2021/10/22 13:27:40;;;;;;;6.03;1.67;;;10.60;99.90;;;;;;4392728;32;20451;-68
2021/10/22 13:30:50;;;;;;;5.50;1.70;;;10.50;99.90;;;;;;4392906;32;20586;-68
2021/10/22 13:33:30;;;;;;;5.50;1.70;;;10.50;99.90;;;;;;4369039;32;20144;-68
2021/10/22 13:36:20;;;;;;;8.17;1.70;;;10.50;99.90;;;;;;4392212;32;20159;-68
2021/10/22 13:39:02;;;;;;;6.97;1.53;;;10.50;99.90;;;;;;4393057;32;20202;-69
2021/10/22 13:41:50;;;;;;;8.73;1.87;;;10.50;99.90;;;;;;4394252;32;20144;-68
2021/10/22 13:44:53;;;;;;;7.33;1.70;;;10.50;99.90;;;;;;4393918;32;20209;-68
2021/10/22 13:47:50;;;;;;;4.60;1.50;;;10.50;99.90;;;;;;4391578;32;20183;-69
2021/10/22 13:50:30;;;;;;;7.07;2.07;;;10.50;99.90;;;;;;4394168;32;20465;-69
2021/10/22 13:53:22;;;;;;;5.27;1.50;;;10.50;99.90;;;;;;4392949;32;20139;-68
2021/10/22 13:56:03;;;;;;;7.03;1.90;;;10.50;99.90;;;;;;4362257;32;20175;-69
2021/10/22 13:59:04;;;;;;;6.60;1.90;;;10.50;99.90;;;;;;4360966;32;20523;-69
2021/10/22 14:01:45;;;;;;;6.47;1.70;;;10.40;99.90;;;;;;4363975;32;20163;-69
2021/10/22 14:04:34;;;;;;;4.73;1.47;;;10.40;99.90;;;;;;4363470;32;20160;-69